createdAt,value
2018-07-23T00:02:05.951Z,8.87
2018-07-23T00:04:36.224Z,9.30
2018-07-23T00:07:06.661Z,9.27
2018-07-23T00:09:36.962Z,9.30
2018-07-23T00:12:07.309Z,9.70
2018-07-23T00:14:37.589Z,11.33
2018-07-23T00:17:08.040Z,9.53
2018-07-23T00:19:38.353Z,10.00
2018-07-23T00:22:08.914Z,11.77
2018-07-23T00:24:39.232Z,12.00
2018-07-23T00:27:09.613Z,13.70
2018-07-23T00:29:39.963Z,12.27
2018-07-23T00:32:11.202Z,11.20
2018-07-23T00:34:41.547Z,12.20
2018-07-23T00:37:11.931Z,10.50
2018-07-23T00:39:42.244Z,10.17
2018-07-23T00:42:12.540Z,10.07
2018-07-23T00:44:42.836Z,10.70
2018-07-23T00:47:13.176Z,10.30
2018-07-23T00:49:43.721Z,10.83
2018-07-23T00:52:14.119Z,10.17
2018-07-23T00:54:44.372Z,10.87
2018-07-23T00:57:14.740Z,10.37
2018-07-23T00:59:45.083Z,10.50
2018-07-23T01:02:15.510Z,10.70
2018-07-23T01:04:45.828Z,11.70
2018-07-23T01:07:16.141Z,10.63
2018-07-23T01:09:46.428Z,11.03
2018-07-23T01:12:36.238Z,10.90
2018-07-23T01:15:06.573Z,11.17
2018-07-23T01:17:36.921Z,11.17
2018-07-23T01:20:07.189Z,10.87
2018-07-23T01:22:37.480Z,11.30
2018-07-23T01:25:07.780Z,10.80
2018-07-23T01:27:38.513Z,11.40
2018-07-23T01:30:08.830Z,11.37
2018-07-23T01:32:39.096Z,11.30
2018-07-23T01:35:09.341Z,11.23
2018-07-23T01:37:39.599Z,11.60
2018-07-23T01:40:09.908Z,12.27
2018-07-23T01:42:40.220Z,12.50
2018-07-23T01:45:10.495Z,11.67
2018-07-23T01:47:40.745Z,13.13
2018-07-23T01:50:10.985Z,12.57
2018-07-23T01:52:41.327Z,10.87
2018-07-23T01:55:11.599Z,12.67
2018-07-23T01:57:41.850Z,11.80
2018-07-23T02:00:12.225Z,12.47
2018-07-23T02:02:42.500Z,12.17
2018-07-23T02:05:12.874Z,12.63
2018-07-23T02:07:43.184Z,13.13
2018-07-23T02:10:13.486Z,11.70
2018-07-23T02:12:43.825Z,12.47
2018-07-23T02:15:14.227Z,12.40
2018-07-23T02:17:44.544Z,12.47
2018-07-23T02:20:14.935Z,12.20
2018-07-23T02:22:45.265Z,12.60
2018-07-23T02:25:15.662Z,13.47
2018-07-23T02:27:45.961Z,12.27
2018-07-23T02:30:16.359Z,12.90
2018-07-23T02:32:46.724Z,12.70
2018-07-23T02:35:17.071Z,13.20
2018-07-23T02:37:47.409Z,13.37
2018-07-23T02:40:17.749Z,12.07
2018-07-23T02:42:48.078Z,13.80
2018-07-23T02:45:18.353Z,12.87
2018-07-23T02:47:48.658Z,13.43
2018-07-23T02:50:18.961Z,13.77
2018-07-23T02:52:49.591Z,13.53
2018-07-23T02:55:19.861Z,13.67
2018-07-23T02:57:50.737Z,13.37
2018-07-23T03:00:21.068Z,13.37
2018-07-23T03:02:51.381Z,14.20
2018-07-23T03:05:21.726Z,12.83
2018-07-23T03:07:52.396Z,14.33
2018-07-23T03:10:22.706Z,14.47
2018-07-23T03:12:53.237Z,14.00
2018-07-23T03:15:23.519Z,13.67
2018-07-23T03:17:53.855Z,13.67
2018-07-23T03:20:24.213Z,14.97
2018-07-23T03:22:54.524Z,14.50
2018-07-23T03:25:24.854Z,14.43
2018-07-23T03:27:55.206Z,13.67
2018-07-23T03:30:25.505Z,14.93
2018-07-23T03:32:55.813Z,14.93
2018-07-23T03:35:26.159Z,20.90
2018-07-23T03:37:56.550Z,18.37
2018-07-23T03:40:26.880Z,15.97
2018-07-23T03:42:57.228Z,14.60
2018-07-23T03:45:27.561Z,16.67
2018-07-23T03:47:57.854Z,15.87
2018-07-23T03:50:28.149Z,17.27
2018-07-23T03:52:58.464Z,15.73
2018-07-23T03:55:28.747Z,18.70
2018-07-23T03:57:58.729Z,18.53
2018-07-23T04:00:28.960Z,17.80
2018-07-23T04:02:59.276Z,16.47
2018-07-23T04:05:29.661Z,17.80
2018-07-23T04:07:59.933Z,17.97
2018-07-23T04:10:30.270Z,18.60
2018-07-23T04:13:00.598Z,19.13
2018-07-23T04:15:30.917Z,21.70
2018-07-23T04:18:04.049Z,18.50
2018-07-23T04:20:36.237Z,18.00
2018-07-23T04:23:07.069Z,18.07
2018-07-23T04:25:37.393Z,18.07
2018-07-23T04:28:07.728Z,18.30
2018-07-23T04:30:38.000Z,18.60
2018-07-23T04:33:08.372Z,17.83
2018-07-23T04:35:38.635Z,18.20
2018-07-23T04:38:08.957Z,30.13
2018-07-23T04:40:39.303Z,21.17
2018-07-23T04:43:09.630Z,17.07
2018-07-23T04:45:39.985Z,17.90
2018-07-23T04:48:10.305Z,17.87
2018-07-23T04:50:40.993Z,14.50
2018-07-23T04:53:11.273Z,15.30
2018-07-23T04:55:41.581Z,15.17
2018-07-23T04:58:11.906Z,15.37
2018-07-23T05:00:42.209Z,17.07
2018-07-23T05:03:12.509Z,18.63
2018-07-23T05:05:42.845Z,17.37
2018-07-23T05:08:13.166Z,17.47
2018-07-23T05:10:43.495Z,17.63
2018-07-23T05:13:13.829Z,16.27
2018-07-23T05:15:44.167Z,16.00
2018-07-23T05:18:14.457Z,15.27
2018-07-23T05:20:44.780Z,15.43
2018-07-23T05:23:15.073Z,16.97
2018-07-23T05:25:45.373Z,16.10
2018-07-23T05:28:15.682Z,15.83
2018-07-23T05:30:45.984Z,17.63
2018-07-23T05:33:16.576Z,18.80
2018-07-23T05:35:46.880Z,18.60
2018-07-23T05:38:17.243Z,19.60
2018-07-23T05:40:47.563Z,18.80
2018-07-23T05:43:17.901Z,19.60
2018-07-23T05:45:48.229Z,17.87
2018-07-23T05:48:18.561Z,19.40
2018-07-23T05:50:48.869Z,19.03
2018-07-23T05:53:19.311Z,18.80
2018-07-23T05:55:49.620Z,19.40
2018-07-23T05:58:19.941Z,19.73
2018-07-23T06:00:50.717Z,19.80
2018-07-23T06:03:21.061Z,19.10
2018-07-23T06:05:51.338Z,19.47
2018-07-23T06:08:21.779Z,18.43
2018-07-23T06:10:52.258Z,19.50
2018-07-23T06:13:23.059Z,18.70
2018-07-23T06:15:53.726Z,18.63
2018-07-23T06:18:24.116Z,18.67
2018-07-23T06:20:54.554Z,18.40
2018-07-23T06:23:25.273Z,18.60
2018-07-23T06:25:55.661Z,18.70
2018-07-23T06:28:26.013Z,20.97
2018-07-23T06:30:56.501Z,18.47
2018-07-23T06:33:26.894Z,18.80
2018-07-23T06:35:57.342Z,20.47
2018-07-23T06:38:27.656Z,20.07
2018-07-23T06:40:58.077Z,19.53
2018-07-23T06:43:28.376Z,20.20
2018-07-23T06:45:59.117Z,19.33
2018-07-23T06:48:29.930Z,17.27
2018-07-23T06:51:00.314Z,19.50
2018-07-23T06:53:30.614Z,18.33
2018-07-23T06:56:00.979Z,20.13
2018-07-23T06:58:31.257Z,18.10
2018-07-23T07:01:01.598Z,18.27
2018-07-23T07:03:31.999Z,19.13
2018-07-23T07:06:02.320Z,19.10
2018-07-23T07:08:32.708Z,18.70
2018-07-23T07:11:03.028Z,28.00
2018-07-23T07:13:33.621Z,20.23
2018-07-23T07:16:03.901Z,18.30
2018-07-23T07:18:34.229Z,18.23
2018-07-23T07:21:04.533Z,18.83
2018-07-23T07:23:39.000Z,18.53
2018-07-23T07:26:09.456Z,19.00
2018-07-23T07:28:39.722Z,17.37
2018-07-23T07:31:10.095Z,18.43
2018-07-23T07:33:40.405Z,16.93
2018-07-23T07:36:10.698Z,16.83
2018-07-23T07:38:41.037Z,15.57
2018-07-23T07:41:11.325Z,14.77
2018-07-23T07:43:41.704Z,14.67
2018-07-23T07:46:12.000Z,13.93
2018-07-23T07:48:42.309Z,14.50
2018-07-23T07:51:12.588Z,14.77
2018-07-23T07:53:42.865Z,15.27
2018-07-23T07:56:13.201Z,15.50
2018-07-23T07:58:43.467Z,14.77
2018-07-23T08:01:13.805Z,14.87
2018-07-23T08:03:44.124Z,14.30
2018-07-23T08:06:14.581Z,14.60
2018-07-23T08:08:45.259Z,15.40
2018-07-23T08:11:15.600Z,13.90
2018-07-23T08:13:45.944Z,13.47
2018-07-23T08:16:16.368Z,14.00
2018-07-23T08:18:46.696Z,13.13
2018-07-23T08:21:17.078Z,14.27
2018-07-23T08:23:47.320Z,13.57
2018-07-23T08:26:17.644Z,12.37
2018-07-23T08:28:48.146Z,12.63
2018-07-23T08:31:18.693Z,13.43
2018-07-23T08:33:49.028Z,11.80
2018-07-23T08:36:19.371Z,11.73
2018-07-23T08:38:49.721Z,10.90
2018-07-23T08:41:20.094Z,11.87
2018-07-23T08:43:50.360Z,11.73
2018-07-23T08:46:20.676Z,11.73
2018-07-23T08:48:50.998Z,10.87
2018-07-23T08:51:21.418Z,11.50
2018-07-23T08:53:51.753Z,12.40
2018-07-23T08:56:22.063Z,11.23
2018-07-23T08:58:52.392Z,11.80
2018-07-23T09:01:22.761Z,11.57
2018-07-23T09:03:53.034Z,11.63
2018-07-23T09:06:23.396Z,10.50
2018-07-23T09:08:53.710Z,11.57
2018-07-23T09:11:24.000Z,10.63
2018-07-23T09:13:54.266Z,11.40
2018-07-23T09:16:24.614Z,10.40
2018-07-23T09:18:54.936Z,11.13
2018-07-23T09:21:25.245Z,12.07
2018-07-23T09:23:55.609Z,11.67
2018-07-23T09:26:25.859Z,10.40
2018-07-23T09:28:56.188Z,10.47
2018-07-23T09:31:26.545Z,10.80
2018-07-23T09:33:56.868Z,10.07
2018-07-23T09:36:27.221Z,10.53
2018-07-23T09:38:57.496Z,10.30
2018-07-23T09:41:27.820Z,10.20
2018-07-23T09:43:58.113Z,10.30
2018-07-23T09:46:28.405Z,9.77
2018-07-23T09:48:58.734Z,9.97
2018-07-23T09:51:29.097Z,10.27
2018-07-23T09:53:59.429Z,10.17
2018-07-23T09:56:29.698Z,10.47
2018-07-23T09:58:59.977Z,9.70
2018-07-23T10:01:30.340Z,10.97
2018-07-23T10:04:00.683Z,10.13
2018-07-23T10:06:31.044Z,9.90
2018-07-23T10:09:01.309Z,10.10
2018-07-23T10:11:31.589Z,9.83
2018-07-23T10:14:01.929Z,10.73
2018-07-23T10:16:32.328Z,10.60
2018-07-23T10:19:02.765Z,11.37
2018-07-23T10:21:33.072Z,10.90
2018-07-23T10:24:03.352Z,10.83
2018-07-23T10:26:33.728Z,10.70
2018-07-23T10:29:04.554Z,11.40
2018-07-23T10:31:34.881Z,11.60
2018-07-23T10:34:05.237Z,11.63
2018-07-23T10:36:35.557Z,10.80
2018-07-23T10:39:08.984Z,12.23
2018-07-23T10:41:39.480Z,11.30
2018-07-23T10:44:09.552Z,11.20
2018-07-23T10:46:39.785Z,10.77
2018-07-23T10:49:10.151Z,12.13
2018-07-23T10:51:40.457Z,11.07
2018-07-23T10:54:10.765Z,10.90
2018-07-23T10:56:41.091Z,11.37
2018-07-23T10:59:11.496Z,11.27
2018-07-23T11:01:41.884Z,10.33
2018-07-23T11:04:12.228Z,10.80
2018-07-23T11:06:42.539Z,11.57
2018-07-23T11:09:12.913Z,10.33
2018-07-23T11:11:43.337Z,11.20
2018-07-23T11:14:13.664Z,11.20
2018-07-23T11:16:43.997Z,10.80
2018-07-23T11:19:14.495Z,10.53
2018-07-23T11:21:44.826Z,10.80
2018-07-23T11:24:15.131Z,10.37
2018-07-23T11:26:45.480Z,10.50
2018-07-23T11:29:15.836Z,10.07
2018-07-23T11:31:46.164Z,11.20
2018-07-23T11:34:16.567Z,10.50
2018-07-23T11:36:46.917Z,10.03
2018-07-23T11:39:17.204Z,10.63
2018-07-23T11:41:47.565Z,9.10
2018-07-23T11:44:17.847Z,10.23
2018-07-23T11:46:49.129Z,16.57
2018-07-23T11:49:19.519Z,15.47
2018-07-23T11:51:50.248Z,14.30
2018-07-23T11:54:20.600Z,10.20
2018-07-23T11:56:50.899Z,9.97
2018-07-23T11:59:21.246Z,9.17
2018-07-23T12:01:51.624Z,10.20
2018-07-23T12:04:21.904Z,10.90
2018-07-23T12:06:52.365Z,11.93
2018-07-23T12:09:23.334Z,10.73
2018-07-23T12:11:53.739Z,11.40
2018-07-23T12:14:24.087Z,14.83
2018-07-23T12:16:54.415Z,15.60
2018-07-23T12:19:24.676Z,10.77
2018-07-23T12:21:55.113Z,10.47
2018-07-23T12:24:25.405Z,10.33
2018-07-23T12:26:55.733Z,9.43
2018-07-23T12:29:26.054Z,9.67
2018-07-23T12:31:56.586Z,10.30
2018-07-23T12:34:26.982Z,10.47
2018-07-23T12:36:57.351Z,10.50
2018-07-23T12:39:27.444Z,25.50
2018-07-23T12:41:57.737Z,32.40
2018-07-23T12:44:28.041Z,18.70
2018-07-23T12:46:58.465Z,11.77
2018-07-23T12:49:28.781Z,11.40
2018-07-23T12:51:59.124Z,11.80
2018-07-23T12:54:29.417Z,12.07
2018-07-23T12:56:59.457Z,11.50
2018-07-23T12:59:29.688Z,10.40
2018-07-23T13:01:59.976Z,11.00
2018-07-23T13:04:30.263Z,15.63
2018-07-23T13:07:00.598Z,16.53
2018-07-23T13:09:30.869Z,13.23
2018-07-23T13:12:01.163Z,11.10
2018-07-23T13:14:31.421Z,10.70
2018-07-23T13:17:01.784Z,10.87
2018-07-23T13:19:32.082Z,11.17
2018-07-23T13:22:02.470Z,11.23
2018-07-23T13:24:32.777Z,11.10
2018-07-23T13:27:03.393Z,11.10
2018-07-23T13:29:33.757Z,11.70
2018-07-23T13:32:04.137Z,10.70
2018-07-23T13:34:34.472Z,10.70
2018-07-23T13:37:04.843Z,10.00
2018-07-23T13:39:35.111Z,9.50
2018-07-23T13:42:05.545Z,10.53
2018-07-23T13:44:36.083Z,10.50
2018-07-23T13:47:06.712Z,9.90
2018-07-23T13:49:36.938Z,11.80
2018-07-23T13:52:07.391Z,10.43
2018-07-23T13:54:37.813Z,11.03
2018-07-23T13:57:08.113Z,11.40
2018-07-23T13:59:38.464Z,11.80
2018-07-23T14:02:08.729Z,11.73
2018-07-23T14:04:39.089Z,12.50
2018-07-23T14:07:09.440Z,12.00
2018-07-23T14:09:39.459Z,12.33
2018-07-23T14:12:09.749Z,13.43
2018-07-23T14:14:40.063Z,12.60
2018-07-23T14:17:10.501Z,12.03
2018-07-23T14:19:40.996Z,12.90
2018-07-23T14:22:11.470Z,11.37
2018-07-23T14:24:41.835Z,13.07
2018-07-23T14:27:12.505Z,11.33
2018-07-23T14:29:42.886Z,11.43
2018-07-23T14:32:13.982Z,12.30
2018-07-23T14:34:44.244Z,13.07
2018-07-23T14:37:14.703Z,13.40
2018-07-23T14:39:45.277Z,23.40
2018-07-23T14:42:15.561Z,12.60
2018-07-23T14:44:46.717Z,12.23
2018-07-23T14:47:17.009Z,12.07
2018-07-23T14:49:47.316Z,10.90
2018-07-23T14:52:17.600Z,11.03
2018-07-23T14:54:47.943Z,10.00
2018-07-23T14:57:18.239Z,10.07
2018-07-23T14:59:48.566Z,9.40
2018-07-23T15:02:18.944Z,10.27
2018-07-23T15:04:49.267Z,10.73
2018-07-23T15:07:19.583Z,10.43
2018-07-23T15:09:49.542Z,10.83
2018-07-23T15:12:19.791Z,9.77
2018-07-23T15:14:50.169Z,9.77
2018-07-23T15:17:20.588Z,10.50
2018-07-23T15:19:50.904Z,10.43
2018-07-23T15:22:21.229Z,9.33
2018-07-23T15:24:51.528Z,10.10
2018-07-23T15:27:22.081Z,10.60
2018-07-23T15:29:52.402Z,11.00
2018-07-23T15:32:22.754Z,9.90
2018-07-23T15:34:53.111Z,9.57
2018-07-23T15:37:23.548Z,9.77
2018-07-23T15:39:54.177Z,9.83
2018-07-23T15:42:24.545Z,10.53
2018-07-23T15:44:54.968Z,10.37
2018-07-23T15:47:25.348Z,15.87
2018-07-23T15:49:55.641Z,11.40
2018-07-23T15:52:26.094Z,10.60
2018-07-23T15:54:56.390Z,10.70
2018-07-23T15:57:26.694Z,9.60
2018-07-23T15:59:56.993Z,10.50
2018-07-23T16:02:27.314Z,11.00
2018-07-23T16:04:57.609Z,10.47
2018-07-23T16:07:27.951Z,10.70
2018-07-23T16:09:58.265Z,11.47
2018-07-23T16:12:28.618Z,11.63
2018-07-23T16:14:58.955Z,11.03
2018-07-23T16:17:29.304Z,11.77
2018-07-23T16:19:59.681Z,11.63
2018-07-23T16:22:29.729Z,11.47
2018-07-23T16:25:00.021Z,11.97
2018-07-23T16:27:30.671Z,11.93
2018-07-23T16:30:01.028Z,12.50
2018-07-23T16:32:31.429Z,14.07
2018-07-23T16:35:01.717Z,12.17
2018-07-23T16:37:32.336Z,11.80
2018-07-23T16:40:02.731Z,12.27
2018-07-23T16:42:33.060Z,12.90
2018-07-23T16:45:03.453Z,13.43
2018-07-23T16:47:33.776Z,11.93
2018-07-23T16:50:04.313Z,13.30
2018-07-23T16:52:35.577Z,13.17
2018-07-23T16:55:05.966Z,13.47
2018-07-23T16:57:36.366Z,13.33
2018-07-23T17:00:07.298Z,13.47
2018-07-23T17:02:37.604Z,13.50
2018-07-23T17:05:07.960Z,13.70
2018-07-23T17:07:38.268Z,12.90
2018-07-23T17:10:08.689Z,14.17
2018-07-23T17:12:38.991Z,13.40
2018-07-23T17:15:09.321Z,13.80
2018-07-23T17:17:39.693Z,12.70
2018-07-23T17:20:09.760Z,13.60
2018-07-23T17:22:40.038Z,13.50
2018-07-23T17:25:10.412Z,13.47
2018-07-23T17:27:40.758Z,14.20
2018-07-23T17:30:11.077Z,14.47
2018-07-23T17:32:41.400Z,20.10
2018-07-23T17:35:11.915Z,15.30
2018-07-23T17:37:42.212Z,18.23
2018-07-23T17:40:12.691Z,14.90
2018-07-23T17:42:43.066Z,14.10
2018-07-23T17:45:13.465Z,15.27
2018-07-23T17:47:43.870Z,16.10
2018-07-23T17:50:14.375Z,16.50
2018-07-23T17:52:45.024Z,16.00
2018-07-23T17:55:15.706Z,14.90
2018-07-23T17:57:46.187Z,14.30
2018-07-23T18:00:17.007Z,14.40
2018-07-23T18:02:47.740Z,14.67
2018-07-23T18:05:18.865Z,15.53
2018-07-23T18:07:49.333Z,15.40
2018-07-23T18:10:19.886Z,14.70
2018-07-23T18:12:50.021Z,15.67
2018-07-23T18:15:20.428Z,15.50
2018-07-23T18:17:51.794Z,15.83
2018-07-23T18:20:23.829Z,16.50
2018-07-23T18:22:54.365Z,21.50
2018-07-23T18:25:24.944Z,18.50
2018-07-23T18:27:55.444Z,16.03
2018-07-23T18:30:25.928Z,15.30
2018-07-23T18:32:56.388Z,16.43
2018-07-23T18:35:26.584Z,16.20
2018-07-23T18:37:57.119Z,15.87
2018-07-23T18:40:27.851Z,16.80
2018-07-23T18:42:58.584Z,15.37
2018-07-23T18:45:29.130Z,15.30
2018-07-23T18:47:59.916Z,15.97
2018-07-23T18:50:30.500Z,69.43
2018-07-23T18:53:02.155Z,29.63
2018-07-23T18:55:33.122Z,16.67
2018-07-23T18:58:04.644Z,15.47
2018-07-23T19:00:35.818Z,15.30
2018-07-23T19:03:07.062Z,15.53
2018-07-23T19:05:39.041Z,15.03
2018-07-23T19:08:10.077Z,16.20
2018-07-23T19:10:40.773Z,15.47
2018-07-23T19:13:11.582Z,15.93
2018-07-23T19:15:42.457Z,17.63
2018-07-23T19:18:12.871Z,17.20
2018-07-23T19:20:43.254Z,15.83
2018-07-23T19:23:13.773Z,15.63
2018-07-23T19:25:44.108Z,17.60
2018-07-23T19:28:14.464Z,17.20
2018-07-23T19:30:44.858Z,17.17
2018-07-23T19:33:15.255Z,16.33
2018-07-23T19:35:45.597Z,16.50
2018-07-23T19:38:16.168Z,16.07
2018-07-23T19:40:46.475Z,15.97
2018-07-23T19:43:16.780Z,16.23
2018-07-23T19:45:47.117Z,15.83
2018-07-23T19:48:17.478Z,17.30
2018-07-23T19:50:47.832Z,16.50
2018-07-23T19:53:18.134Z,30.37
2018-07-23T19:55:48.485Z,56.27
2018-07-23T19:58:18.828Z,20.90
2018-07-23T20:00:49.149Z,16.20
2018-07-23T20:03:19.452Z,17.40
2018-07-23T20:05:49.803Z,16.37
2018-07-23T20:08:20.301Z,16.60
2018-07-23T20:10:50.643Z,15.23
2018-07-23T20:13:20.989Z,15.67
2018-07-23T20:15:51.348Z,15.37
2018-07-23T20:18:21.718Z,16.00
2018-07-23T20:20:52.089Z,15.87
2018-07-23T20:23:22.477Z,15.90
2018-07-23T20:25:52.820Z,17.70
2018-07-23T20:28:23.146Z,18.23
2018-07-23T20:30:53.428Z,17.33
2018-07-23T20:33:24.322Z,15.33
2018-07-23T20:35:54.624Z,15.00
2018-07-23T20:38:24.957Z,13.83
2018-07-23T20:40:55.289Z,14.33
2018-07-23T20:43:28.156Z,13.43
2018-07-23T20:45:59.004Z,12.63
2018-07-23T20:48:29.350Z,13.13
2018-07-23T20:51:00.057Z,32.30
2018-07-23T20:53:30.360Z,15.30
2018-07-23T20:56:00.656Z,11.80
2018-07-23T20:58:31.204Z,11.60
2018-07-23T21:01:01.502Z,11.10
2018-07-23T21:03:31.782Z,11.57
2018-07-23T21:06:02.112Z,9.87
2018-07-23T21:08:32.441Z,9.63
2018-07-23T21:11:02.705Z,10.10
2018-07-23T21:13:33.048Z,9.93
2018-07-23T21:16:03.828Z,9.77
2018-07-23T21:18:34.131Z,10.17
2018-07-23T21:21:04.482Z,9.77
2018-07-23T21:23:34.768Z,8.90
2018-07-23T21:26:05.861Z,10.60
2018-07-23T21:28:36.307Z,8.50
2018-07-23T21:31:06.941Z,8.83
2018-07-23T21:33:37.368Z,9.27
2018-07-23T21:36:07.921Z,9.20
2018-07-23T21:38:38.314Z,9.67
2018-07-23T21:41:08.676Z,9.37
2018-07-23T21:43:39.099Z,9.70
2018-07-23T21:46:09.542Z,8.90
2018-07-23T21:48:39.951Z,8.63
2018-07-23T21:51:10.347Z,8.90
2018-07-23T21:53:41.412Z,9.07
2018-07-23T21:56:11.717Z,9.13
2018-07-23T21:58:42.001Z,8.27
2018-07-23T22:01:12.287Z,8.40
2018-07-23T22:03:42.584Z,8.53
2018-07-23T22:06:12.839Z,8.40
2018-07-23T22:08:43.086Z,8.40
2018-07-23T22:11:13.309Z,8.53
2018-07-23T22:13:43.654Z,8.43
2018-07-23T22:16:14.008Z,8.23
2018-07-23T22:18:44.320Z,8.30
2018-07-23T22:21:14.640Z,8.10
2018-07-23T22:23:44.901Z,8.63
2018-07-23T22:26:15.216Z,7.90
2018-07-23T22:28:45.477Z,8.47
2018-07-23T22:31:15.855Z,8.07
2018-07-23T22:33:46.181Z,8.53
2018-07-23T22:36:16.665Z,8.30
2018-07-23T22:38:47.069Z,7.27
2018-07-23T22:41:17.356Z,8.57
2018-07-23T22:43:47.681Z,8.17
2018-07-23T22:46:18.003Z,7.80
2018-07-23T22:48:48.238Z,7.87
2018-07-23T22:51:18.469Z,7.70
2018-07-23T22:53:48.749Z,8.23
2018-07-23T22:56:19.010Z,7.50
2018-07-23T22:58:49.273Z,7.43
2018-07-23T23:01:19.849Z,7.60
2018-07-23T23:03:50.197Z,8.07
2018-07-23T23:06:20.505Z,8.10
2018-07-23T23:08:50.765Z,7.50
2018-07-23T23:11:21.052Z,7.27
2018-07-23T23:13:51.282Z,7.90
2018-07-23T23:16:21.581Z,8.10
2018-07-23T23:18:51.835Z,7.97
2018-07-23T23:21:22.103Z,7.60
2018-07-23T23:23:52.340Z,7.87
2018-07-23T23:26:22.589Z,8.67
2018-07-23T23:28:52.879Z,8.23
2018-07-23T23:31:23.134Z,7.63
2018-07-23T23:33:54.265Z,7.00
2018-07-23T23:36:24.542Z,7.47
2018-07-23T23:38:54.828Z,7.37
2018-07-23T23:41:25.085Z,7.93
2018-07-23T23:43:55.371Z,7.80
2018-07-23T23:46:25.632Z,8.03
2018-07-23T23:48:55.961Z,7.83
2018-07-23T23:51:26.260Z,7.23
2018-07-23T23:53:56.208Z,7.77
2018-07-23T23:56:26.421Z,7.60
2018-07-23T23:58:56.740Z,7.30
